Owensville, OH (45160)

10:13 PM EDT on September 01, 2014 (GMT -0400)
Pleasant Acres | Change Station
CLOSE
Current Station
Personal Weather Station
Location: Batavia, OH
Elevation: 843 ft
Nearby Weather Stations

Elev 843 ft 39.07 °N, 84.15 °W | Updated 3 seconds ago

Scattered Clouds
Scattered Clouds
77.9 °F
Feels Like 80 °F
N
0.0
Wind Variable Wind from SW
Gusts 1.0 mph

Today
High -- | Low -- °F
--% Chance of Precip.
Yesterday
High -- | Low -- °F
Precip. -- in
7:05 AM 8:07 PM
Waxing Crescent, 46% visible
Pressure 29.95 in
Visibility 10.0 miles
Clouds Scattered Clouds 3700 ft
Scattered Clouds 4300 ft
Heat Index 80 °F
Dew Point 72 °F
Humidity 81%
Rainfall 0.30 in
Snow Depth Not available.
UV 0 out of 12
Pollen 9.60 out of 12
Ozone Good
PM2.5 Moderate
Flu Activity Not available.
METAR KI69 020156Z AUTO 21006G15KT 10SM SCT037 SCT043 27/21 A2995 RMK AO1

More Conditions Fewer Conditions

Pressure 29.95 in
Visibility 10.0 miles
Clouds Scattered Clouds 3700 ft
Scattered Clouds 4300 ft
Heat Index 80 °F
Dew Point 72 °F
Humidity 81%
Rainfall 0.30 in
Snow Depth Not available.
UV 0 out of 12
Pollen 9.60 out of 12
Ozone Good
PM2.5 Moderate
Flu Activity Not available.
METAR KI69 020156Z AUTO 21006G15KT 10SM SCT037 SCT043 27/21 A2995 RMK AO1

More Conditions Fewer Conditions

10-Day Weather Forecast

Almanac

Astronomy

Sep. 01, 2014 Rise Set
Actual Time 7:05 AM EDT 8:07 PM EDT
Civil Twilight 6:37 AM EDT 8:34 PM EDT
Nautical Twilight 6:05 AM EDT 9:06 PM EDT
Astronomical Twilight 5:31 AM EDT 9:40 PM EDT
Moon 1:47 PM EDT (9/1) No Moon Set
Length of Visible Light 13h 56m
Length of Day
13h 01m
Tomorrow will be 2m 27s shorter.
Waxing Crescent, 46% of the Moon is Illuminated
Today
Waxing Crescent
Sep 2
First Quarter
Sep 8
Full
Sep 15
Last Quarter
Sep 24
New

Today's Extremes

State Highs State Lows

Community

WunderPhotos

Upload Photos

1,749,493 photos uploaded!

Nearby

Air Quality

  Air Quality AQ Index Pollutant
Yesterday Good
PM10
Yesterday Good
OZONE
Current Moderate
PM2.5
Current Good
OZONE
Monday Moderate
PM2.5
Monday Good
OZONE
Tuesday Moderate
PM2.5
Tuesday Good
OZONE

Snow Depth

Station Depth Elevation
No new snow has been reported.

Earthquake Activity

City Distance Mag. Time & Date
No recent earthquake activity has been reported nearby.
Minimum magnitude displayed is 2.5.

Coastal Water Temperatures

Place Temperature
No Stations Reporting

Nearby Weather Stations